Cumby, Texas
Current Conditions -  °F | °C
As of 10:35 AM on Saturday 25 Oct 2014 (Local Time) from KSLR Reporting Station
Clear Clear  
Wind Chill: 75°   Ceiling: Unl
Heat Index: 75°   Visibility: 10mi
Dew Point: 59°   Wind: 14mph
Humidity: 58%   Direction: 210°SSW
Pressure: 30.18"   Gusts: 18mph
Location:  33.14°N, 95.84°W
Report Text: KSLR 251535Z AUTO 21012G16KT 10SM CLR 24/15 A3018 RMK AO2 T02380150
Loading
Personal Weather Stations






























Interactive Weather Map
Tropical Storm Tracking
New forecast layout! Learn more

10-Day Weather Forecast

Advertisements
Track Severe Weather on mobile